sensor_id;sensor_type;location;lat;lon;timestamp;temperature;humidity
21787;DHT22;11055;50.870;4.316;2024-03-29T00:00:25;10.50;99.90
21787;DHT22;11055;50.870;4.316;2024-03-29T00:02:51;10.50;99.90
21787;DHT22;11055;50.870;4.316;2024-03-29T00:05:16;10.50;99.90
21787;DHT22;11055;50.870;4.316;2024-03-29T00:07:42;10.50;99.90
21787;DHT22;11055;50.870;4.316;2024-03-29T00:10:08;10.60;99.90
21787;DHT22;11055;50.870;4.316;2024-03-29T00:12:34;10.70;99.90
21787;DHT22;11055;50.870;4.316;2024-03-29T00:15:00;10.70;99.90
21787;DHT22;11055;50.870;4.316;2024-03-29T00:17:25;10.70;99.90
21787;DHT22;11055;50.870;4.316;2024-03-29T00:19:51;10.70;99.90
21787;DHT22;11055;50.870;4.316;2024-03-29T00:22:17;10.80;99.90
21787;DHT22;11055;50.870;4.316;2024-03-29T00:24:42;10.80;99.90
21787;DHT22;11055;50.870;4.316;2024-03-29T00:27:08;10.80;99.90
21787;DHT22;11055;50.870;4.316;2024-03-29T00:29:34;10.80;99.90
21787;DHT22;11055;50.870;4.316;2024-03-29T00:32:00;10.80;99.90
21787;DHT22;11055;50.870;4.316;2024-03-29T00:34:25;10.70;99.90
21787;DHT22;11055;50.870;4.316;2024-03-29T00:36:51;10.80;99.90
21787;DHT22;11055;50.870;4.316;2024-03-29T00:39:18;10.80;99.90
21787;DHT22;11055;50.870;4.316;2024-03-29T00:41:43;10.80;99.90
21787;DHT22;11055;50.870;4.316;2024-03-29T00:44:09;10.90;99.90
21787;DHT22;11055;50.870;4.316;2024-03-29T00:46:35;10.90;99.90
21787;DHT22;11055;50.870;4.316;2024-03-29T00:49:00;10.90;99.90
21787;DHT22;11055;50.870;4.316;2024-03-29T00:51:26;11.00;99.90
21787;DHT22;11055;50.870;4.316;2024-03-29T00:53:52;10.90;99.90
21787;DHT22;11055;50.870;4.316;2024-03-29T00:56:19;11.00;99.90
21787;DHT22;11055;50.870;4.316;2024-03-29T00:58:45;11.00;99.90
21787;DHT22;11055;50.870;4.316;2024-03-29T01:01:11;11.00;99.90
21787;DHT22;11055;50.870;4.316;2024-03-29T01:03:37;10.90;99.90
21787;DHT22;11055;50.870;4.316;2024-03-29T01:06:03;11.00;99.90
21787;DHT22;11055;50.870;4.316;2024-03-29T01:08:28;11.00;99.90
21787;DHT22;11055;50.870;4.316;2024-03-29T01:10:54;11.00;99.90
21787;DHT22;11055;50.870;4.316;2024-03-29T01:13:20;11.10;99.90
21787;DHT22;11055;50.870;4.316;2024-03-29T01:15:45;11.10;99.90
21787;DHT22;11055;50.870;4.316;2024-03-29T01:18:11;11.10;99.90
21787;DHT22;11055;50.870;4.316;2024-03-29T01:20:37;11.10;99.90
21787;DHT22;11055;50.870;4.316;2024-03-29T01:23:03;11.00;99.90
21787;DHT22;11055;50.870;4.316;2024-03-29T01:25:28;11.10;99.90
21787;DHT22;11055;50.870;4.316;2024-03-29T01:27:55;11.10;99.90
21787;DHT22;11055;50.870;4.316;2024-03-29T01:30:20;11.10;99.90
21787;DHT22;11055;50.870;4.316;2024-03-29T01:32:47;11.10;99.90
21787;DHT22;11055;50.870;4.316;2024-03-29T01:35:13;11.00;99.90
21787;DHT22;11055;50.870;4.316;2024-03-29T01:37:39;11.00;99.90
21787;DHT22;11055;50.870;4.316;2024-03-29T01:40:05;11.00;99.90
21787;DHT22;11055;50.870;4.316;2024-03-29T01:42:31;10.90;99.90
21787;DHT22;11055;50.870;4.316;2024-03-29T01:44:56;10.90;99.90
21787;DHT22;11055;50.870;4.316;2024-03-29T01:47:22;10.80;99.90
21787;DHT22;11055;50.870;4.316;2024-03-29T01:49:48;10.80;99.90
21787;DHT22;11055;50.870;4.316;2024-03-29T01:52:15;10.70;99.90
21787;DHT22;11055;50.870;4.316;2024-03-29T01:54:42;10.60;99.90
21787;DHT22;11055;50.870;4.316;2024-03-29T01:57:09;10.60;99.90
21787;DHT22;11055;50.870;4.316;2024-03-29T01:59:37;10.50;99.90
21787;DHT22;11055;50.870;4.316;2024-03-29T02:02:03;10.50;99.90
21787;DHT22;11055;50.870;4.316;2024-03-29T02:04:29;10.50;99.90
21787;DHT22;11055;50.870;4.316;2024-03-29T02:06:55;10.50;99.90
21787;DHT22;11055;50.870;4.316;2024-03-29T02:09:21;10.40;99.90
21787;DHT22;11055;50.870;4.316;2024-03-29T02:11:46;10.40;99.90
21787;DHT22;11055;50.870;4.316;2024-03-29T02:14:12;10.40;99.90
21787;DHT22;11055;50.870;4.316;2024-03-29T02:16:37;10.40;99.90
21787;DHT22;11055;50.870;4.316;2024-03-29T02:19:03;10.30;99.90
21787;DHT22;11055;50.870;4.316;2024-03-29T02:21:30;10.30;99.90
21787;DHT22;11055;50.870;4.316;2024-03-29T02:24:05;10.10;99.90
21787;DHT22;11055;50.870;4.316;2024-03-29T02:26:32;10.00;99.90
21787;DHT22;11055;50.870;4.316;2024-03-29T02:29:01;9.90;99.90
21787;DHT22;11055;50.870;4.316;2024-03-29T02:31:27;10.00;99.90
21787;DHT22;11055;50.870;4.316;2024-03-29T02:33:53;10.00;99.90
21787;DHT22;11055;50.870;4.316;2024-03-29T02:36:19;10.00;99.90
21787;DHT22;11055;50.870;4.316;2024-03-29T02:38:44;9.90;99.90
21787;DHT22;11055;50.870;4.316;2024-03-29T02:41:10;9.90;99.90
21787;DHT22;11055;50.870;4.316;2024-03-29T02:43:36;9.80;99.90
21787;DHT22;11055;50.870;4.316;2024-03-29T02:46:01;9.70;99.90
21787;DHT22;11055;50.870;4.316;2024-03-29T02:48:27;9.70;99.90
21787;DHT22;11055;50.870;4.316;2024-03-29T02:50:53;9.70;99.90
21787;DHT22;11055;50.870;4.316;2024-03-29T02:53:18;9.70;99.90
21787;DHT22;11055;50.870;4.316;2024-03-29T02:55:44;9.70;99.90
21787;DHT22;11055;50.870;4.316;2024-03-29T02:58:10;9.70;99.90
21787;DHT22;11055;50.870;4.316;2024-03-29T03:00:35;9.70;99.90
21787;DHT22;11055;50.870;4.316;2024-03-29T03:03:02;9.80;99.90
21787;DHT22;11055;50.870;4.316;2024-03-29T03:05:29;9.80;99.90
21787;DHT22;11055;50.870;4.316;2024-03-29T03:07:55;9.80;99.90
21787;DHT22;11055;50.870;4.316;2024-03-29T03:10:48;9.70;99.90
21787;DHT22;11055;50.870;4.316;2024-03-29T03:13:26;9.70;99.90
21787;DHT22;11055;50.870;4.316;2024-03-29T03:15:52;9.60;99.90
21787;DHT22;11055;50.870;4.316;2024-03-29T03:18:18;9.50;99.90
21787;DHT22;11055;50.870;4.316;2024-03-29T03:20:50;9.50;99.90
21787;DHT22;11055;50.870;4.316;2024-03-29T03:23:16;9.50;99.90
21787;DHT22;11055;50.870;4.316;2024-03-29T03:25:42;9.40;99.90
21787;DHT22;11055;50.870;4.316;2024-03-29T03:28:07;9.40;99.90
21787;DHT22;11055;50.870;4.316;2024-03-29T03:30:38;9.40;99.90
21787;DHT22;11055;50.870;4.316;2024-03-29T03:33:04;9.30;99.90
21787;DHT22;11055;50.870;4.316;2024-03-29T03:35:30;9.30;99.90
21787;DHT22;11055;50.870;4.316;2024-03-29T03:37:56;9.30;99.90
21787;DHT22;11055;50.870;4.316;2024-03-29T03:40:21;9.20;99.90
21787;DHT22;11055;50.870;4.316;2024-03-29T03:42:47;9.20;99.90
21787;DHT22;11055;50.870;4.316;2024-03-29T03:45:13;9.20;99.90
21787;DHT22;11055;50.870;4.316;2024-03-29T03:47:39;9.20;99.90
21787;DHT22;11055;50.870;4.316;2024-03-29T03:50:05;9.10;99.90
21787;DHT22;11055;50.870;4.316;2024-03-29T03:52:30;9.10;99.90
21787;DHT22;11055;50.870;4.316;2024-03-29T03:54:56;9.20;99.90
21787;DHT22;11055;50.870;4.316;2024-03-29T03:57:22;9.20;99.90
21787;DHT22;11055;50.870;4.316;2024-03-29T03:59:49;9.20;99.90
21787;DHT22;11055;50.870;4.316;2024-03-29T04:02:15;9.20;99.90
21787;DHT22;11055;50.870;4.316;2024-03-29T04:04:41;9.20;99.90
21787;DHT22;11055;50.870;4.316;2024-03-29T04:07:07;9.30;99.90
21787;DHT22;11055;50.870;4.316;2024-03-29T04:09:32;9.30;99.90
21787;DHT22;11055;50.870;4.316;2024-03-29T04:11:58;9.40;99.90
21787;DHT22;11055;50.870;4.316;2024-03-29T04:14:24;9.40;99.90
21787;DHT22;11055;50.870;4.316;2024-03-29T04:16:49;9.40;99.90
21787;DHT22;11055;50.870;4.316;2024-03-29T04:19:15;9.40;99.90
21787;DHT22;11055;50.870;4.316;2024-03-29T04:21:41;9.40;99.90
21787;DHT22;11055;50.870;4.316;2024-03-29T04:24:06;9.40;99.90
21787;DHT22;11055;50.870;4.316;2024-03-29T04:26:35;9.30;99.90
21787;DHT22;11055;50.870;4.316;2024-03-29T04:29:02;9.40;99.90
21787;DHT22;11055;50.870;4.316;2024-03-29T04:31:28;9.50;99.90
21787;DHT22;11055;50.870;4.316;2024-03-29T04:33:53;9.50;99.90
21787;DHT22;11055;50.870;4.316;2024-03-29T04:36:19;9.40;99.90
21787;DHT22;11055;50.870;4.316;2024-03-29T04:38:45;9.40;99.90
21787;DHT22;11055;50.870;4.316;2024-03-29T04:41:10;9.40;99.90
21787;DHT22;11055;50.870;4.316;2024-03-29T04:43:36;9.40;99.90
21787;DHT22;11055;50.870;4.316;2024-03-29T04:46:09;9.40;99.90
21787;DHT22;11055;50.870;4.316;2024-03-29T04:48:36;9.40;99.90
21787;DHT22;11055;50.870;4.316;2024-03-29T04:51:02;9.40;99.90
21787;DHT22;11055;50.870;4.316;2024-03-29T04:53:28;9.30;99.90
21787;DHT22;11055;50.870;4.316;2024-03-29T04:55:57;9.40;99.90
21787;DHT22;11055;50.870;4.316;2024-03-29T04:58:27;9.30;99.90
21787;DHT22;11055;50.870;4.316;2024-03-29T05:00:54;9.20;99.90
21787;DHT22;11055;50.870;4.316;2024-03-29T05:03:21;9.10;99.90
21787;DHT22;11055;50.870;4.316;2024-03-29T05:05:48;9.10;99.90
21787;DHT22;11055;50.870;4.316;2024-03-29T05:08:14;9.10;99.90
21787;DHT22;11055;50.870;4.316;2024-03-29T05:10:40;9.20;99.90
21787;DHT22;11055;50.870;4.316;2024-03-29T05:13:06;9.20;99.90
21787;DHT22;11055;50.870;4.316;2024-03-29T05:15:32;9.20;99.90
21787;DHT22;11055;50.870;4.316;2024-03-29T05:17:57;9.10;99.90
21787;DHT22;11055;50.870;4.316;2024-03-29T05:20:23;9.20;99.90
21787;DHT22;11055;50.870;4.316;2024-03-29T05:22:49;9.30;99.90
21787;DHT22;11055;50.870;4.316;2024-03-29T05:25:16;9.30;99.90
21787;DHT22;11055;50.870;4.316;2024-03-29T05:27:42;9.40;99.90
21787;DHT22;11055;50.870;4.316;2024-03-29T05:30:08;9.60;99.90
21787;DHT22;11055;50.870;4.316;2024-03-29T05:32:35;9.60;99.90
21787;DHT22;11055;50.870;4.316;2024-03-29T05:35:01;9.50;99.90
21787;DHT22;11055;50.870;4.316;2024-03-29T05:37:27;9.50;99.90
21787;DHT22;11055;50.870;4.316;2024-03-29T05:39:53;9.40;99.90
21787;DHT22;11055;50.870;4.316;2024-03-29T05:42:30;9.40;99.90
21787;DHT22;11055;50.870;4.316;2024-03-29T05:44:56;9.30;99.90
21787;DHT22;11055;50.870;4.316;2024-03-29T05:47:21;9.40;99.90
21787;DHT22;11055;50.870;4.316;2024-03-29T05:49:48;9.40;99.90
21787;DHT22;11055;50.870;4.316;2024-03-29T05:52:14;9.50;99.90
21787;DHT22;11055;50.870;4.316;2024-03-29T05:54:41;9.40;99.90
21787;DHT22;11055;50.870;4.316;2024-03-29T05:57:07;9.30;99.90
21787;DHT22;11055;50.870;4.316;2024-03-29T05:59:34;9.30;99.90
21787;DHT22;11055;50.870;4.316;2024-03-29T06:02:00;9.10;99.90
21787;DHT22;11055;50.870;4.316;2024-03-29T06:04:26;9.10;99.90
21787;DHT22;11055;50.870;4.316;2024-03-29T06:06:59;9.10;99.90
21787;DHT22;11055;50.870;4.316;2024-03-29T06:09:24;9.10;99.90
21787;DHT22;11055;50.870;4.316;2024-03-29T06:11:51;9.20;99.90
21787;DHT22;11055;50.870;4.316;2024-03-29T06:14:17;9.20;99.90
21787;DHT22;11055;50.870;4.316;2024-03-29T06:17:01;9.30;99.90
21787;DHT22;11055;50.870;4.316;2024-03-29T06:19:45;9.40;99.90
21787;DHT22;11055;50.870;4.316;2024-03-29T06:22:11;9.50;99.90
21787;DHT22;11055;50.870;4.316;2024-03-29T06:24:36;9.50;99.90
21787;DHT22;11055;50.870;4.316;2024-03-29T06:27:04;9.70;99.90
21787;DHT22;11055;50.870;4.316;2024-03-29T06:29:30;9.70;99.90
21787;DHT22;11055;50.870;4.316;2024-03-29T06:31:55;9.70;99.90
21787;DHT22;11055;50.870;4.316;2024-03-29T06:34:21;9.70;99.90
21787;DHT22;11055;50.870;4.316;2024-03-29T06:36:47;9.80;99.90
21787;DHT22;11055;50.870;4.316;2024-03-29T06:39:12;9.90;99.90
21787;DHT22;11055;50.870;4.316;2024-03-29T06:41:38;10.00;99.90
21787;DHT22;11055;50.870;4.316;2024-03-29T06:44:04;10.10;99.90
21787;DHT22;11055;50.870;4.316;2024-03-29T06:46:30;10.30;99.90
21787;DHT22;11055;50.870;4.316;2024-03-29T06:48:57;10.30;99.90
21787;DHT22;11055;50.870;4.316;2024-03-29T06:51:23;10.20;99.90
21787;DHT22;11055;50.870;4.316;2024-03-29T06:53:48;10.10;99.90
21787;DHT22;11055;50.870;4.316;2024-03-29T06:56:14;10.20;99.90
21787;DHT22;11055;50.870;4.316;2024-03-29T06:58:41;10.20;99.90
21787;DHT22;11055;50.870;4.316;2024-03-29T07:01:07;10.20;99.90
21787;DHT22;11055;50.870;4.316;2024-03-29T07:03:33;10.30;99.90
21787;DHT22;11055;50.870;4.316;2024-03-29T07:05:59;10.40;99.90
21787;DHT22;11055;50.870;4.316;2024-03-29T07:08:25;10.50;99.90
21787;DHT22;11055;50.870;4.316;2024-03-29T07:11:01;10.40;99.90
21787;DHT22;11055;50.870;4.316;2024-03-29T07:13:29;10.30;99.90
21787;DHT22;11055;50.870;4.316;2024-03-29T07:15:59;10.20;99.90
21787;DHT22;11055;50.870;4.316;2024-03-29T07:18:25;10.20;99.90
21787;DHT22;11055;50.870;4.316;2024-03-29T07:20:50;10.10;99.90
21787;DHT22;11055;50.870;4.316;2024-03-29T07:23:16;9.90;99.90
21787;DHT22;11055;50.870;4.316;2024-03-29T07:25:56;10.00;99.90
21787;DHT22;11055;50.870;4.316;2024-03-29T07:28:22;10.00;99.90
21787;DHT22;11055;50.870;4.316;2024-03-29T07:30:47;10.20;99.90
21787;DHT22;11055;50.870;4.316;2024-03-29T07:33:15;10.20;99.90
21787;DHT22;11055;50.870;4.316;2024-03-29T07:35:41;10.40;99.90
21787;DHT22;11055;50.870;4.316;2024-03-29T07:38:08;10.40;99.90
21787;DHT22;11055;50.870;4.316;2024-03-29T07:40:33;10.40;99.90
21787;DHT22;11055;50.870;4.316;2024-03-29T07:43:00;10.40;99.90
21787;DHT22;11055;50.870;4.316;2024-03-29T07:45:26;10.30;99.90
21787;DHT22;11055;50.870;4.316;2024-03-29T07:47:53;10.20;99.90
21787;DHT22;11055;50.870;4.316;2024-03-29T07:50:22;10.30;99.90
21787;DHT22;11055;50.870;4.316;2024-03-29T07:52:50;10.40;99.90
21787;DHT22;11055;50.870;4.316;2024-03-29T07:55:16;10.40;99.90
21787;DHT22;11055;50.870;4.316;2024-03-29T07:57:42;10.50;99.90
21787;DHT22;11055;50.870;4.316;2024-03-29T08:00:08;10.60;99.90
21787;DHT22;11055;50.870;4.316;2024-03-29T08:02:35;10.80;99.90
21787;DHT22;11055;50.870;4.316;2024-03-29T08:05:01;11.00;99.90
21787;DHT22;11055;50.870;4.316;2024-03-29T08:07:27;11.10;99.90
21787;DHT22;11055;50.870;4.316;2024-03-29T08:09:53;11.20;99.90
21787;DHT22;11055;50.870;4.316;2024-03-29T08:12:19;11.10;99.90
21787;DHT22;11055;50.870;4.316;2024-03-29T08:14:45;11.20;99.90
21787;DHT22;11055;50.870;4.316;2024-03-29T08:17:12;11.00;99.90
21787;DHT22;11055;50.870;4.316;2024-03-29T08:19:40;10.90;99.90
21787;DHT22;11055;50.870;4.316;2024-03-29T08:22:07;10.90;99.90
21787;DHT22;11055;50.870;4.316;2024-03-29T08:24:36;11.00;99.90
21787;DHT22;11055;50.870;4.316;2024-03-29T08:27:02;11.10;99.90
21787;DHT22;11055;50.870;4.316;2024-03-29T08:29:28;11.30;99.90
21787;DHT22;11055;50.870;4.316;2024-03-29T08:31:54;11.40;99.90
21787;DHT22;11055;50.870;4.316;2024-03-29T08:34:19;11.30;99.90
21787;DHT22;11055;50.870;4.316;2024-03-29T08:36:45;11.30;99.90
21787;DHT22;11055;50.870;4.316;2024-03-29T08:39:11;11.20;99.90
21787;DHT22;11055;50.870;4.316;2024-03-29T08:41:37;11.30;99.90
21787;DHT22;11055;50.870;4.316;2024-03-29T08:44:02;11.50;99.90
21787;DHT22;11055;50.870;4.316;2024-03-29T08:46:28;11.60;99.90
21787;DHT22;11055;50.870;4.316;2024-03-29T08:48:54;11.50;99.90
21787;DHT22;11055;50.870;4.316;2024-03-29T08:51:22;11.60;99.90
21787;DHT22;11055;50.870;4.316;2024-03-29T08:53:48;11.50;99.90
21787;DHT22;11055;50.870;4.316;2024-03-29T08:56:14;11.30;99.90
21787;DHT22;11055;50.870;4.316;2024-03-29T08:58:41;11.50;99.90
21787;DHT22;11055;50.870;4.316;2024-03-29T09:01:07;11.70;99.90
21787;DHT22;11055;50.870;4.316;2024-03-29T09:03:32;11.80;99.90
21787;DHT22;11055;50.870;4.316;2024-03-29T09:05:58;12.00;99.90
21787;DHT22;11055;50.870;4.316;2024-03-29T09:08:24;12.10;99.90
21787;DHT22;11055;50.870;4.316;2024-03-29T09:10:49;12.20;99.90
21787;DHT22;11055;50.870;4.316;2024-03-29T09:13:16;12.40;99.90
21787;DHT22;11055;50.870;4.316;2024-03-29T09:15:41;12.40;99.90
21787;DHT22;11055;50.870;4.316;2024-03-29T09:18:08;12.40;99.90
21787;DHT22;11055;50.870;4.316;2024-03-29T09:20:44;12.60;99.90
21787;DHT22;11055;50.870;4.316;2024-03-29T09:23:11;12.70;99.90
21787;DHT22;11055;50.870;4.316;2024-03-29T09:25:41;12.50;99.90
21787;DHT22;11055;50.870;4.316;2024-03-29T09:28:06;12.70;99.90
21787;DHT22;11055;50.870;4.316;2024-03-29T09:30:35;12.90;99.90
21787;DHT22;11055;50.870;4.316;2024-03-29T09:33:01;13.00;99.90
21787;DHT22;11055;50.870;4.316;2024-03-29T09:35:30;12.90;99.90
21787;DHT22;11055;50.870;4.316;2024-03-29T09:37:56;13.00;99.90
21787;DHT22;11055;50.870;4.316;2024-03-29T09:40:24;13.00;99.90
21787;DHT22;11055;50.870;4.316;2024-03-29T09:42:51;12.90;99.90
21787;DHT22;11055;50.870;4.316;2024-03-29T09:45:18;12.80;99.90
21787;DHT22;11055;50.870;4.316;2024-03-29T09:47:44;13.00;99.90
21787;DHT22;11055;50.870;4.316;2024-03-29T09:50:10;13.10;99.90
21787;DHT22;11055;50.870;4.316;2024-03-29T09:52:38;13.10;99.90
21787;DHT22;11055;50.870;4.316;2024-03-29T09:55:05;13.30;99.90
21787;DHT22;11055;50.870;4.316;2024-03-29T09:57:32;13.30;99.90
21787;DHT22;11055;50.870;4.316;2024-03-29T09:59:58;13.30;99.90
21787;DHT22;11055;50.870;4.316;2024-03-29T10:02:28;13.40;99.90
21787;DHT22;11055;50.870;4.316;2024-03-29T10:04:55;13.70;99.90
21787;DHT22;11055;50.870;4.316;2024-03-29T10:07:21;13.70;99.90
21787;DHT22;11055;50.870;4.316;2024-03-29T10:09:48;13.80;99.90
21787;DHT22;11055;50.870;4.316;2024-03-29T10:12:16;13.80;99.90
21787;DHT22;11055;50.870;4.316;2024-03-29T10:14:51;13.90;99.90
21787;DHT22;11055;50.870;4.316;2024-03-29T10:17:44;13.80;99.90
21787;DHT22;11055;50.870;4.316;2024-03-29T10:20:11;13.50;99.90
21787;DHT22;11055;50.870;4.316;2024-03-29T10:22:44;13.40;99.90
21787;DHT22;11055;50.870;4.316;2024-03-29T10:25:19;13.70;99.90
21787;DHT22;11055;50.870;4.316;2024-03-29T10:27:45;13.90;99.90
21787;DHT22;11055;50.870;4.316;2024-03-29T10:30:11;14.00;99.90
21787;DHT22;11055;50.870;4.316;2024-03-29T10:32:42;14.10;99.90
21787;DHT22;11055;50.870;4.316;2024-03-29T10:35:09;14.00;99.90
21787;DHT22;11055;50.870;4.316;2024-03-29T10:37:36;14.10;99.90
21787;DHT22;11055;50.870;4.316;2024-03-29T10:40:10;14.30;99.90
21787;DHT22;11055;50.870;4.316;2024-03-29T10:42:37;14.50;99.90
21787;DHT22;11055;50.870;4.316;2024-03-29T10:45:06;14.90;99.90
21787;DHT22;11055;50.870;4.316;2024-03-29T10:47:33;15.00;99.90
21787;DHT22;11055;50.870;4.316;2024-03-29T10:49:59;14.30;99.90
21787;DHT22;11055;50.870;4.316;2024-03-29T10:52:26;14.20;99.90
21787;DHT22;11055;50.870;4.316;2024-03-29T10:54:52;14.30;99.90
21787;DHT22;11055;50.870;4.316;2024-03-29T10:57:23;14.80;99.90
21787;DHT22;11055;50.870;4.316;2024-03-29T11:02:39;16.60;99.90
21787;DHT22;11055;50.870;4.316;2024-03-29T11:05:09;16.10;99.90
21787;DHT22;11055;50.870;4.316;2024-03-29T11:07:39;17.30;99.90
21787;DHT22;11055;50.870;4.316;2024-03-29T11:10:06;18.30;99.90
21787;DHT22;11055;50.870;4.316;2024-03-29T11:12:41;19.10;99.90
21787;DHT22;11055;50.870;4.316;2024-03-29T11:15:15;19.70;99.90
21787;DHT22;11055;50.870;4.316;2024-03-29T11:17:42;20.80;99.90
21787;DHT22;11055;50.870;4.316;2024-03-29T11:20:08;21.10;99.90
21787;DHT22;11055;50.870;4.316;2024-03-29T11:22:36;22.30;99.30
21787;DHT22;11055;50.870;4.316;2024-03-29T11:25:02;23.00;96.00
21787;DHT22;11055;50.870;4.316;2024-03-29T11:27:29;23.40;93.10
21787;DHT22;11055;50.870;4.316;2024-03-29T11:29:55;21.30;96.20
21787;DHT22;11055;50.870;4.316;2024-03-29T11:32:37;19.90;99.90
21787;DHT22;11055;50.870;4.316;2024-03-29T11:35:04;19.70;99.90
21787;DHT22;11055;50.870;4.316;2024-03-29T11:37:31;20.50;98.80
21787;DHT22;11055;50.870;4.316;2024-03-29T11:40:00;20.20;99.50
21787;DHT22;11055;50.870;4.316;2024-03-29T11:42:37;18.50;99.90
21787;DHT22;11055;50.870;4.316;2024-03-29T11:45:04;17.80;99.90
21787;DHT22;11055;50.870;4.316;2024-03-29T11:47:31;19.50;99.90
21787;DHT22;11055;50.870;4.316;2024-03-29T11:49:58;20.70;99.70
21787;DHT22;11055;50.870;4.316;2024-03-29T11:52:26;20.50;98.10
21787;DHT22;11055;50.870;4.316;2024-03-29T11:54:54;20.60;98.40
21787;DHT22;11055;50.870;4.316;2024-03-29T11:57:19;22.20;95.70
21787;DHT22;11055;50.870;4.316;2024-03-29T11:59:45;23.10;91.60
21787;DHT22;11055;50.870;4.316;2024-03-29T12:02:13;23.90;87.10
21787;DHT22;11055;50.870;4.316;2024-03-29T12:04:41;25.30;84.20
21787;DHT22;11055;50.870;4.316;2024-03-29T12:07:07;26.10;75.10
21787;DHT22;11055;50.870;4.316;2024-03-29T12:09:32;25.30;75.50
21787;DHT22;11055;50.870;4.316;2024-03-29T12:11:58;24.60;76.00
21787;DHT22;11055;50.870;4.316;2024-03-29T12:14:29;23.30;81.80
21787;DHT22;11055;50.870;4.316;2024-03-29T12:17:00;23.10;84.20
21787;DHT22;11055;50.870;4.316;2024-03-29T12:19:26;23.70;81.80
21787;DHT22;11055;50.870;4.316;2024-03-29T12:21:53;22.80;84.80
21787;DHT22;11055;50.870;4.316;2024-03-29T12:24:19;22.40;86.60
21787;DHT22;11055;50.870;4.316;2024-03-29T12:26:48;22.40;86.20
21787;DHT22;11055;50.870;4.316;2024-03-29T12:29:14;23.00;85.00
21787;DHT22;11055;50.870;4.316;2024-03-29T12:31:40;23.30;83.60
21787;DHT22;11055;50.870;4.316;2024-03-29T12:34:06;22.20;86.90
21787;DHT22;11055;50.870;4.316;2024-03-29T12:36:33;21.80;87.20
21787;DHT22;11055;50.870;4.316;2024-03-29T12:38:59;21.40;90.40
21787;DHT22;11055;50.870;4.316;2024-03-29T12:41:31;21.80;88.70
21787;DHT22;11055;50.870;4.316;2024-03-29T12:43:58;21.60;89.10
21787;DHT22;11055;50.870;4.316;2024-03-29T12:46:24;22.40;89.50
21787;DHT22;11055;50.870;4.316;2024-03-29T12:48:58;22.50;82.60
21787;DHT22;11055;50.870;4.316;2024-03-29T12:51:24;22.40;86.10
21787;DHT22;11055;50.870;4.316;2024-03-29T12:53:50;22.20;85.20
21787;DHT22;11055;50.870;4.316;2024-03-29T12:56:16;21.60;86.00
21787;DHT22;11055;50.870;4.316;2024-03-29T12:58:42;20.60;90.80
21787;DHT22;11055;50.870;4.316;2024-03-29T13:01:07;21.40;91.10
21787;DHT22;11055;50.870;4.316;2024-03-29T13:03:35;23.60;83.40
21787;DHT22;11055;50.870;4.316;2024-03-29T13:06:02;24.50;77.40
21787;DHT22;11055;50.870;4.316;2024-03-29T13:08:27;23.40;79.30
21787;DHT22;11055;50.870;4.316;2024-03-29T13:10:53;22.40;83.00
21787;DHT22;11055;50.870;4.316;2024-03-29T13:13:20;21.20;87.80
21787;DHT22;11055;50.870;4.316;2024-03-29T13:15:46;21.50;88.50
21787;DHT22;11055;50.870;4.316;2024-03-29T13:18:13;21.00;90.00
21787;DHT22;11055;50.870;4.316;2024-03-29T13:20:42;19.80;92.40
21787;DHT22;11055;50.870;4.316;2024-03-29T13:23:08;19.70;93.70
21787;DHT22;11055;50.870;4.316;2024-03-29T13:25:34;19.90;94.00
21787;DHT22;11055;50.870;4.316;2024-03-29T13:28:00;19.70;94.50
21787;DHT22;11055;50.870;4.316;2024-03-29T13:30:26;20.10;94.20
21787;DHT22;11055;50.870;4.316;2024-03-29T13:32:53;21.80;91.20
21787;DHT22;11055;50.870;4.316;2024-03-29T13:35:19;24.00;83.70
21787;DHT22;11055;50.870;4.316;2024-03-29T13:37:48;26.00;77.10
21787;DHT22;11055;50.870;4.316;2024-03-29T13:40:15;25.60;72.40
21787;DHT22;11055;50.870;4.316;2024-03-29T13:42:41;25.20;72.90
21787;DHT22;11055;50.870;4.316;2024-03-29T13:45:08;25.80;70.70
21787;DHT22;11055;50.870;4.316;2024-03-29T13:47:38;24.10;73.00
21787;DHT22;11055;50.870;4.316;2024-03-29T13:50:05;23.60;77.30
21787;DHT22;11055;50.870;4.316;2024-03-29T13:52:33;23.10;78.10
21787;DHT22;11055;50.870;4.316;2024-03-29T13:54:59;22.30;78.20
21787;DHT22;11055;50.870;4.316;2024-03-29T13:57:25;20.90;81.20
21787;DHT22;11055;50.870;4.316;2024-03-29T13:59:51;21.10;82.10
21787;DHT22;11055;50.870;4.316;2024-03-29T14:02:18;20.20;86.60
21787;DHT22;11055;50.870;4.316;2024-03-29T14:04:45;19.60;89.00
21787;DHT22;11055;50.870;4.316;2024-03-29T14:07:13;19.00;91.60
21787;DHT22;11055;50.870;4.316;2024-03-29T14:09:40;18.80;93.30
21787;DHT22;11055;50.870;4.316;2024-03-29T14:12:06;18.90;93.70
21787;DHT22;11055;50.870;4.316;2024-03-29T14:14:32;18.80;94.10
21787;DHT22;11055;50.870;4.316;2024-03-29T14:16:58;18.80;94.30
21787;DHT22;11055;50.870;4.316;2024-03-29T14:19:24;18.70;94.90
21787;DHT22;11055;50.870;4.316;2024-03-29T14:21:50;18.40;96.00
21787;DHT22;11055;50.870;4.316;2024-03-29T14:24:15;18.20;97.00
21787;DHT22;11055;50.870;4.316;2024-03-29T14:26:44;18.40;97.80
21787;DHT22;11055;50.870;4.316;2024-03-29T14:29:10;18.40;97.90
21787;DHT22;11055;50.870;4.316;2024-03-29T14:31:37;18.30;97.20
21787;DHT22;11055;50.870;4.316;2024-03-29T14:34:03;18.30;97.00
21787;DHT22;11055;50.870;4.316;2024-03-29T14:36:29;17.90;97.50
21787;DHT22;11055;50.870;4.316;2024-03-29T14:38:58;17.90;97.70
21787;DHT22;11055;50.870;4.316;2024-03-29T14:41:26;17.90;97.30
21787;DHT22;11055;50.870;4.316;2024-03-29T14:43:53;18.00;96.80
21787;DHT22;11055;50.870;4.316;2024-03-29T14:46:21;17.80;96.90
21787;DHT22;11055;50.870;4.316;2024-03-29T14:48:47;17.70;97.80
21787;DHT22;11055;50.870;4.316;2024-03-29T14:51:13;17.70;98.40
21787;DHT22;11055;50.870;4.316;2024-03-29T14:53:38;17.70;97.30
21787;DHT22;11055;50.870;4.316;2024-03-29T14:56:04;17.70;97.40
21787;DHT22;11055;50.870;4.316;2024-03-29T14:58:31;17.80;97.10
21787;DHT22;11055;50.870;4.316;2024-03-29T15:00:57;17.70;97.00
21787;DHT22;11055;50.870;4.316;2024-03-29T15:03:22;17.70;97.50
21787;DHT22;11055;50.870;4.316;2024-03-29T15:05:49;17.30;98.90
21787;DHT22;11055;50.870;4.316;2024-03-29T15:08:16;17.30;99.70
21787;DHT22;11055;50.870;4.316;2024-03-29T15:10:44;17.40;98.90
21787;DHT22;11055;50.870;4.316;2024-03-29T15:13:10;17.30;99.70
21787;DHT22;11055;50.870;4.316;2024-03-29T15:15:36;17.30;99.40
21787;DHT22;11055;50.870;4.316;2024-03-29T15:18:04;17.60;99.40
21787;DHT22;11055;50.870;4.316;2024-03-29T15:20:31;17.50;99.50
21787;DHT22;11055;50.870;4.316;2024-03-29T15:22:57;17.50;99.60
21787;DHT22;11055;50.870;4.316;2024-03-29T15:25:24;17.50;99.90
21787;DHT22;11055;50.870;4.316;2024-03-29T15:27:49;17.50;99.90
21787;DHT22;11055;50.870;4.316;2024-03-29T15:30:34;17.40;99.90
21787;DHT22;11055;50.870;4.316;2024-03-29T15:33:01;17.10;99.90
21787;DHT22;11055;50.870;4.316;2024-03-29T15:35:27;17.00;99.90